INGA4: Red River, Index, AR

Data processed at Wed May 22 2019 23:50


All information presented herein is the property of the government of the United States of America and may be revised or deleted at any time without prior notice.
Dissemination of this information without the expressed written consent of the Public Affairs Office, Tulsa District U.S. Army Corps of Engineers is strictly prohibited.
These data are gathered electronically and, as presented, have not undergone any form of quality control. These data are not guaranteed to be valid or correct.
Go to home page.
Go to station list.
Go to home page.

Upstream stations:

Downstream station:
Previous Day
Next Day
Current Day
    
SHEF ID:       INGA4     Red River at Index, AR
STATION TYPE:  
Regulating: Stage =    19.80, Flow =    99988

               PRECIP     STAGE  RIV-FLOW  WTR-TEMP  BAT-LOAD
                   in        ft       cfs         F      volt
              Ccp-Rev   Ccp-Rev   Ccp-Rev   Ccp-Rev   Ccp-Rev
(US/Central)
05/22 00:00      0.00     13.58     66033     71.42     12.81
05/22 01:00      0.00     13.56     65926     71.24     12.81
05/22 02:00      0.00     13.59     66087     71.24     12.81
05/22 03:00      0.00     13.57     65980     71.06     12.73
05/22 04:00      0.00     13.58     66033     70.88     12.73
05/22 05:00      0.00     13.56     65926     70.88     12.73
05/22 06:00      0.00     13.53     65765     70.88     12.73
05/22 07:00      0.00     13.53     65765     70.88     12.73
05/22 08:00      0.00     13.60     66141     70.70     12.73
05/22 09:00      0.00     13.62     66248     70.88     12.81
05/22 10:00      0.00     13.54     65819     70.88     12.81
05/22 11:00      0.00     13.62     66248     70.88     13.29
05/22 12:00      0.00     13.68     66571     71.06     13.37
05/22 13:00      0.00     13.66     66463     71.24     13.60
05/22 14:00      0.00     13.75     66947     71.42     13.60
05/22 15:00      0.00     13.68     66571     71.60     13.53
05/22 16:00      0.00     13.80     67216     71.96     13.29
05/22 17:00      0.00     13.82     67323     71.96     13.29
05/22 18:00      0.00     13.75     66947     72.14     13.29
05/22 19:00      0.00     13.81     67270     72.14     13.13
05/22 20:00      0.00     13.84     67431     72.14     13.05
05/22 21:00      0.00     13.81     67270     72.14     12.97
05/22 22:00      0.00     13.83     67377     71.96     12.97
05/22 23:00      0.00     13.90     67754     71.96     12.97